createdAt,value
2019-02-05T00:00:35.835Z,97.21
2019-02-05T00:05:39.403Z,97.26
2019-02-05T00:10:42.363Z,96.91
2019-02-05T00:15:44.862Z,98.03
2019-02-05T00:20:48.434Z,97.78
2019-02-05T00:25:52.056Z,98.21
2019-02-05T00:30:55.633Z,97.94
2019-02-05T00:35:59.109Z,98.43
2019-02-05T00:41:03.348Z,99.22
2019-02-05T00:46:06.211Z,99.43
2019-02-05T00:51:09.807Z,99.79
2019-02-05T00:56:17.631Z,99.86
2019-02-05T01:01:17.827Z,99.86
2019-02-05T01:06:21.300Z,99.00
2019-02-05T01:11:24.667Z,99.20
2019-02-05T01:16:27.245Z,98.97
2019-02-05T01:21:30.473Z,98.96
2019-02-05T01:26:34.058Z,99.25
2019-02-05T01:31:37.786Z,99.27
2019-02-05T01:36:41.034Z,99.01
2019-02-05T01:41:44.509Z,99.39
2019-02-05T01:46:47.970Z,99.70
2019-02-05T01:51:50.902Z,99.53
2019-02-05T01:56:54.496Z,99.67
2019-02-05T02:01:57.758Z,100.00
2019-02-05T02:07:01.209Z,100.00
2019-02-05T02:12:04.795Z,100.00
2019-02-05T02:17:08.316Z,100.00
2019-02-05T02:22:11.509Z,100.00
2019-02-05T02:27:15.079Z,100.00
2019-02-05T02:32:18.262Z,100.00
2019-02-05T02:37:20.769Z,100.00
2019-02-05T02:42:23.976Z,100.00
2019-02-05T02:47:27.867Z,100.00
2019-02-05T02:52:31.233Z,100.00
2019-02-05T02:57:34.416Z,100.00
2019-02-05T03:02:37.295Z,100.00
2019-02-05T03:07:40.208Z,100.00
2019-02-05T03:12:43.852Z,100.00
2019-02-05T03:17:46.649Z,100.00
2019-02-05T03:22:49.851Z,100.00
2019-02-05T03:27:54.278Z,100.00
2019-02-05T03:32:57.667Z,100.00
2019-02-05T03:38:01.145Z,100.00
2019-02-05T03:43:04.849Z,100.00
2019-02-05T03:48:08.071Z,100.00
2019-02-05T03:53:11.953Z,100.00
2019-02-05T03:58:42.948Z,100.00
2019-02-05T04:04:45.656Z,100.00
2019-02-05T04:10:27.167Z,100.00
2019-02-05T04:16:39.387Z,100.00
2019-02-05T04:22:19.387Z,100.00
2019-02-05T04:27:43.864Z,100.00
2019-02-05T04:33:23.741Z,100.00
2019-02-05T04:38:46.103Z,100.00
2019-02-05T04:44:42.453Z,100.00
2019-02-05T04:50:24.017Z,100.00
2019-02-05T04:56:14.722Z,100.00
2019-02-05T05:02:02.342Z,100.00
2019-02-05T05:07:24.937Z,100.00
2019-02-05T05:12:31.786Z,100.00
2019-02-05T05:17:34.602Z,100.00
2019-02-05T05:22:37.876Z,100.00
2019-02-05T05:27:41.976Z,100.00
2019-02-05T05:32:44.505Z,100.00
2019-02-05T05:37:47.747Z,100.00
2019-02-05T05:42:50.960Z,100.00
2019-02-05T05:47:54.208Z,100.00
2019-02-05T05:52:57.137Z,100.00
2019-02-05T05:58:00.684Z,100.00
2019-02-05T06:03:03.649Z,100.00
2019-02-05T06:08:16.086Z,100.00
2019-02-05T06:13:19.504Z,100.00
2019-02-05T06:18:22.748Z,100.00
2019-02-05T06:23:26.059Z,100.00
2019-02-05T06:28:34.698Z,100.00
2019-02-05T06:33:33.976Z,100.00
2019-02-05T06:38:37.105Z,100.00
2019-02-05T06:43:40.615Z,100.00
2019-02-05T06:48:43.126Z,100.00
2019-02-05T06:53:45.615Z,100.00
2019-02-05T06:58:48.811Z,100.00
2019-02-05T07:03:52.352Z,100.00
2019-02-05T07:08:55.592Z,100.00
2019-02-05T07:13:59.273Z,100.00
2019-02-05T07:19:02.526Z,100.00
2019-02-05T07:24:05.934Z,100.00
2019-02-05T07:29:09.356Z,100.00
2019-02-05T07:34:12.666Z,100.00
2019-02-05T07:39:15.668Z,100.00
2019-02-05T07:44:18.530Z,100.00
2019-02-05T07:49:21.746Z,100.00
2019-02-05T07:54:23.901Z,100.00
2019-02-05T07:59:26.856Z,100.00
2019-02-05T08:04:30.435Z,100.00
2019-02-05T08:09:35.030Z,100.00
2019-02-05T08:14:39.571Z,100.00
2019-02-05T08:19:42.228Z,100.00
2019-02-05T08:24:45.135Z,100.00
2019-02-05T08:29:48.383Z,100.00
2019-02-05T08:34:52.040Z,100.00
2019-02-05T08:39:55.684Z,100.00
2019-02-05T08:44:59.130Z,100.00
2019-02-05T08:50:02.439Z,100.00
2019-02-05T08:55:07.182Z,100.00
2019-02-05T09:00:14.448Z,100.00
2019-02-05T09:05:20.527Z,100.00
2019-02-05T09:10:28.644Z,100.00
2019-02-05T09:15:32.002Z,100.00
2019-02-05T09:20:34.923Z,100.00
2019-02-05T09:25:38.488Z,99.23
2019-02-05T09:30:41.808Z,99.86
2019-02-05T09:35:45.080Z,100.00
2019-02-05T09:40:48.785Z,100.00
2019-02-05T09:45:52.060Z,100.00
2019-02-05T09:50:55.688Z,99.75
2019-02-05T09:55:58.724Z,99.49
2019-02-05T10:01:02.140Z,99.72
2019-02-05T10:06:05.465Z,99.29
2019-02-05T10:11:08.454Z,100.00
2019-02-05T10:16:10.998Z,100.00
2019-02-05T10:21:14.282Z,99.91
2019-02-05T10:26:17.163Z,99.86
2019-02-05T10:31:20.476Z,99.22
2019-02-05T10:36:24.076Z,98.33
2019-02-05T10:41:27.290Z,97.79
2019-02-05T10:46:30.557Z,97.05
2019-02-05T10:51:33.926Z,95.71
2019-02-05T10:56:37.447Z,96.74
2019-02-05T11:01:40.044Z,95.36
2019-02-05T11:06:44.501Z,94.94
2019-02-05T11:11:50.198Z,95.13
2019-02-05T11:16:54.474Z,95.18
2019-02-05T11:21:57.804Z,95.83
2019-02-05T11:27:01.109Z,95.66
2019-02-05T11:32:04.565Z,96.27
2019-02-05T11:37:07.942Z,96.62
2019-02-05T11:42:10.481Z,96.72
2019-02-05T11:47:13.801Z,96.30
2019-02-05T11:52:17.054Z,95.09
2019-02-05T11:57:20.000Z,95.98
2019-02-05T12:02:23.111Z,95.68
2019-02-05T12:07:26.074Z,95.87
2019-02-05T12:12:28.690Z,95.96
2019-02-05T12:17:32.368Z,96.18
2019-02-05T12:22:35.719Z,95.32
2019-02-05T12:27:39.006Z,95.45
2019-02-05T12:32:42.589Z,95.82
2019-02-05T12:37:45.181Z,96.36
2019-02-05T12:42:48.529Z,96.03
2019-02-05T12:47:51.814Z,95.29
2019-02-05T12:52:55.594Z,95.98
2019-02-05T12:57:59.977Z,95.28
2019-02-05T13:03:03.548Z,95.55
2019-02-05T13:08:07.584Z,94.63
2019-02-05T13:13:11.015Z,94.57
2019-02-05T13:18:14.396Z,94.22
2019-02-05T13:23:17.656Z,94.39
2019-02-05T13:28:21.020Z,94.30
2019-02-05T13:33:24.318Z,94.88
2019-02-05T13:38:28.010Z,94.25
2019-02-05T13:43:31.131Z,93.91
2019-02-05T13:48:34.478Z,94.28
2019-02-05T13:53:37.886Z,94.15
2019-02-05T13:58:41.530Z,94.98
2019-02-05T14:03:46.041Z,94.38
2019-02-05T14:08:49.641Z,93.53
2019-02-05T14:13:52.633Z,94.11
2019-02-05T14:18:55.938Z,94.70
2019-02-05T14:23:59.435Z,95.32
2019-02-05T14:29:02.393Z,94.51
2019-02-05T14:34:06.241Z,94.17
2019-02-05T14:39:11.003Z,94.60
2019-02-05T14:44:14.355Z,95.46
2019-02-05T14:49:17.592Z,95.39
2019-02-05T14:54:20.213Z,95.19
2019-02-05T14:59:23.099Z,95.58
2019-02-05T15:04:26.738Z,95.70
2019-02-05T15:09:29.727Z,95.72
2019-02-05T15:14:32.965Z,95.08
2019-02-05T15:19:36.321Z,95.95
2019-02-05T15:24:40.987Z,96.68
2019-02-05T15:29:43.943Z,96.41
2019-02-05T15:34:46.878Z,95.78
2019-02-05T15:39:50.299Z,95.68
2019-02-05T15:44:53.917Z,95.73
2019-02-05T15:50:05.846Z,96.03
2019-02-05T15:55:02.234Z,96.49
2019-02-05T16:00:08.064Z,96.45
2019-02-05T16:05:12.321Z,97.01
2019-02-05T16:10:15.755Z,97.55
2019-02-05T16:15:19.120Z,97.66
2019-02-05T16:20:22.317Z,98.52
2019-02-05T16:25:25.566Z,98.71
2019-02-05T16:30:28.826Z,98.57
2019-02-05T16:35:32.135Z,98.78
2019-02-05T16:40:35.487Z,98.06
2019-02-05T16:45:38.671Z,97.54
2019-02-05T16:50:43.618Z,97.91
2019-02-05T16:55:47.716Z,98.17
2019-02-05T17:00:53.398Z,98.35
2019-02-05T17:05:57.185Z,98.42
2019-02-05T17:11:00.225Z,98.43
2019-02-05T17:16:04.061Z,98.89
2019-02-05T17:21:06.898Z,98.53
2019-02-05T17:26:10.328Z,98.20
2019-02-05T17:31:13.956Z,98.89
2019-02-05T17:36:17.028Z,98.66
2019-02-05T17:41:20.733Z,98.47
2019-02-05T17:46:25.808Z,98.61
2019-02-05T17:51:29.293Z,100.00
2019-02-05T17:56:32.641Z,99.62
2019-02-05T18:01:36.426Z,99.18
2019-02-05T18:06:39.699Z,98.83
2019-02-05T18:11:43.568Z,98.80
2019-02-05T18:16:47.343Z,99.67
2019-02-05T18:21:51.966Z,100.00
2019-02-05T18:26:57.287Z,100.00
2019-02-05T18:32:02.369Z,100.00
2019-02-05T18:37:06.419Z,100.00
2019-02-05T18:42:12.103Z,100.00
2019-02-05T18:47:17.095Z,100.00
2019-02-05T18:52:23.906Z,100.00
2019-02-05T18:57:29.257Z,100.00
2019-02-05T19:02:33.867Z,100.00
2019-02-05T19:07:42.010Z,100.00
2019-02-05T19:12:48.284Z,100.00
2019-02-05T19:17:54.527Z,100.00
2019-02-05T19:22:59.786Z,100.00
2019-02-05T19:28:04.457Z,100.00
2019-02-05T19:33:09.247Z,100.00
2019-02-05T19:38:16.108Z,100.00
2019-02-05T19:43:23.396Z,100.00
2019-02-05T19:48:35.040Z,100.00
2019-02-05T19:53:42.857Z,100.00
2019-02-05T19:58:49.961Z,100.00
2019-02-05T20:03:56.471Z,100.00
2019-02-05T20:09:04.364Z,100.00
2019-02-05T20:14:09.369Z,100.00
2019-02-05T20:19:14.489Z,100.00
2019-02-05T20:24:19.709Z,100.00
2019-02-05T20:29:25.142Z,100.00
2019-02-05T20:34:33.662Z,100.00
2019-02-05T20:39:40.821Z,100.00
2019-02-05T20:44:47.281Z,100.00
2019-02-05T20:49:54.366Z,100.00
2019-02-05T20:55:00.953Z,100.00
2019-02-05T21:00:14.937Z,100.00
2019-02-05T21:05:20.106Z,100.00
2019-02-05T21:10:27.424Z,100.00
2019-02-05T21:15:31.987Z,100.00
2019-02-05T21:20:36.743Z,100.00
2019-02-05T21:25:41.566Z,100.00
2019-02-05T21:30:46.474Z,100.00
2019-02-05T21:35:50.066Z,100.00
2019-02-05T21:40:54.499Z,100.00
2019-02-05T21:46:00.970Z,100.00
2019-02-05T21:51:05.099Z,100.00
2019-02-05T21:56:08.435Z,100.00
2019-02-05T22:01:14.527Z,99.27
2019-02-05T22:06:17.432Z,99.50
2019-02-05T22:11:20.982Z,99.58
2019-02-05T22:16:24.890Z,99.52
2019-02-05T22:21:27.843Z,99.74
2019-02-05T22:26:31.463Z,99.40
2019-02-05T22:31:34.791Z,98.94
2019-02-05T22:36:38.031Z,98.09
2019-02-05T22:41:40.879Z,98.94
2019-02-05T22:46:43.922Z,98.82
2019-02-05T22:51:46.879Z,98.25
2019-02-05T22:56:49.898Z,98.69
2019-02-05T23:01:56.906Z,98.18
2019-02-05T23:07:04.214Z,98.49
2019-02-05T23:12:13.863Z,98.80
2019-02-05T23:17:17.212Z,97.76
2019-02-05T23:22:21.300Z,98.80
2019-02-05T23:27:24.690Z,98.75
2019-02-05T23:32:28.465Z,98.80
2019-02-05T23:37:31.436Z,97.75
2019-02-05T23:42:34.363Z,98.41
2019-02-05T23:47:38.598Z,97.87
2019-02-05T23:52:42.015Z,98.44
2019-02-05T23:57:45.347Z,97.18
